VTUU/UBP METAR and TAF weather

Enter ICAO airport designator
Station Type Date Time Source
VTUU METAR 2022/06/26 08:00 UTC NOAA

VTUU 260800Z 16004KT 060V230 9999 FEW025TCU SCT040 33/25 Q1006 NOSIG


Station Type Date Time Source
VTUU Decoded METAR 2022/06/26 08:00 UTC NOAA

Ubon Ratchathani, Thailand (VTUU) 15-15N 104-52E 127M
Jun 26, 2022 - 04:00 AM EDT / 2022.06.26 0800 UTC
Wind: from the SSE (160 degrees) at 5 MPH (4 KT) (direction variable):0
Visibility: greater than 7 mile(s):0
Sky conditions: partly cloudy
Weather: Towering cumulus clouds observed
Temperature: 91 F (33 C)
Heat index: 103.5 F (39.7 C):1
Dew Point: 77 F (25 C)
Relative Humidity: 62%
Pressure (altimeter): 29.71 in. Hg (1006 hPa)
ob: VTUU 260800Z 16004KT 060V230 9999 FEW025TCU SCT040 33/25 Q1006 NOSIG
cycle: 8

Station Type Date Time Source
VTUU TAF 2022/06/26 06:36 UTC NOAA

TAF VTUU 260500Z 2606/2706 22005KT 9999 SCT020

Example: see airport list